Time;durP1;ratioP1;P1;durP2;ratioP2;P2;SDS_P1;SDS_P2;PMS_P1;PMS_P2;Temp;Humidity;BMP_temperature;BMP_pressure;BME280_temperature;BME280_humidity;BME280_pressure;Samples;Min_cycle;Max_cycle;Signal;HPM_P1;HPM_P2
2022/01/02 00:01:02;;;;;;;13.93;6.65;;;11.30;99.90;;;;;;5078451;28;20408;-86
2022/01/02 00:03:34;;;;;;;12.32;7.45;;;11.30;99.90;;;;;;5098256;28;20058;-85
2022/01/02 00:06:02;;;;;;;12.93;7.32;;;11.30;99.90;;;;;;5068814;28;20039;-85
2022/01/02 00:08:31;;;;;;;14.75;7.45;;;11.30;99.90;;;;;;5077837;28;20092;-86
2022/01/02 00:10:58;;;;;;;11.25;6.60;;;11.30;99.90;;;;;;5092650;28;20036;-85
2022/01/02 00:13:32;;;;;;;15.57;8.00;;;11.30;99.90;;;;;;5098667;28;20040;-86
2022/01/02 00:16:06;;;;;;;14.27;7.50;;;11.30;99.90;;;;;;5111573;28;20032;-86
2022/01/02 00:18:35;;;;;;;18.60;7.43;;;11.30;99.90;;;;;;5080935;28;20067;-86
2022/01/02 00:21:03;;;;;;;14.07;7.53;;;11.30;99.90;;;;;;5074569;28;20114;-86
2022/01/02 00:23:33;;;;;;;14.40;7.53;;;11.30;99.90;;;;;;5092926;28;20484;-86
2022/01/02 00:26:04;;;;;;;15.70;7.20;;;11.20;99.90;;;;;;5080049;28;20122;-86
2022/01/02 00:28:32;;;;;;;15.77;7.20;;;11.20;99.90;;;;;;5090637;28;20386;-86
2022/01/02 00:30:58;;;;;;;12.20;7.03;;;11.20;99.90;;;;;;5076827;28;20046;-86
2022/01/02 00:33:26;;;;;;;16.50;7.25;;;11.30;99.90;;;;;;5105900;28;20540;-85
2022/01/02 00:35:51;;;;;;;17.15;7.50;;;11.20;99.90;;;;;;5093717;28;20058;-85
2022/01/02 00:38:22;;;;;;;13.52;7.38;;;11.20;99.90;;;;;;5106080;28;20130;-85
2022/01/02 00:40:50;;;;;;;16.80;7.72;;;11.20;99.90;;;;;;5082283;27;20035;-85
2022/01/02 00:43:25;;;;;;;14.65;8.35;;;11.20;99.90;;;;;;5079663;28;20043;-85
2022/01/02 00:45:54;;;;;;;13.75;7.68;;;11.20;99.90;;;;;;5101624;27;20117;-85
2022/01/02 00:48:24;;;;;;;13.50;7.20;;;11.20;99.90;;;;;;5103849;27;20035;-85
2022/01/02 00:50:52;;;;;;;27.95;8.15;;;11.10;99.90;;;;;;5083397;27;20113;-85
2022/01/02 00:53:19;;;;;;;17.65;8.43;;;11.20;99.90;;;;;;5077132;27;20059;-85
2022/01/02 00:55:47;;;;;;;15.98;7.72;;;11.20;99.90;;;;;;5088566;27;20039;-85
2022/01/02 00:58:14;;;;;;;20.17;8.30;;;11.20;99.90;;;;;;5092123;28;20074;-85
2022/01/02 01:00:51;;;;;;;21.00;8.48;;;11.20;99.90;;;;;;5099614;27;20039;-85
2022/01/02 01:03:29;;;;;;;15.70;7.90;;;11.10;99.90;;;;;;5096879;27;20080;-85
2022/01/02 01:05:55;;;;;;;20.50;8.35;;;11.10;99.90;;;;;;5108948;27;20080;-85
2022/01/02 01:08:24;;;;;;;17.42;8.38;;;11.10;99.90;;;;;;5084441;27;20046;-85
2022/01/02 01:10:51;;;;;;;17.48;7.82;;;11.20;99.90;;;;;;5099490;27;20039;-85
2022/01/02 01:13:16;;;;;;;14.48;7.22;;;11.20;99.90;;;;;;5097601;28;20066;-86
2022/01/02 01:15:42;;;;;;;19.00;7.75;;;11.10;99.90;;;;;;5098928;27;20062;-86
2022/01/02 01:18:09;;;;;;;21.05;8.73;;;11.20;99.90;;;;;;5084483;27;20066;-85
2022/01/02 01:20:42;;;;;;;18.58;8.88;;;11.20;99.90;;;;;;5082200;27;20039;-86
2022/01/02 01:23:15;;;;;;;18.30;8.07;;;11.20;99.90;;;;;;5092328;27;20051;-85
2022/01/02 01:25:44;;;;;;;20.23;8.73;;;11.20;99.90;;;;;;5111098;27;20504;-85
2022/01/02 01:28:10;;;;;;;18.15;8.68;;;11.20;99.90;;;;;;5072460;28;20046;-85
2022/01/02 01:30:36;;;;;;;20.60;7.88;;;11.20;99.90;;;;;;5101186;27;20131;-86
2022/01/02 01:33:02;;;;;;;20.27;8.68;;;11.20;99.90;;;;;;5085947;27;20118;-86
2022/01/02 01:35:29;;;;;;;18.23;8.40;;;11.20;99.90;;;;;;5080429;27;20062;-86
2022/01/02 01:37:54;;;;;;;21.45;8.55;;;11.20;99.90;;;;;;5075922;27;20408;-86
2022/01/02 01:40:21;;;;;;;17.40;7.93;;;11.20;99.90;;;;;;5084601;27;20027;-85
2022/01/02 01:43:03;;;;;;;20.67;8.43;;;11.20;99.90;;;;;;5081004;28;20198;-85
2022/01/02 01:45:29;;;;;;;17.63;8.13;;;11.20;99.90;;;;;;5100404;27;20080;-86
2022/01/02 01:47:57;;;;;;;16.27;8.25;;;11.20;99.90;;;;;;5077523;28;20100;-86
2022/01/02 01:50:32;;;;;;;22.45;8.45;;;11.20;99.90;;;;;;5098291;28;20039;-86
2022/01/02 01:52:58;;;;;;;20.50;9.07;;;11.20;99.90;;;;;;5098091;27;20070;-85
2022/01/02 01:55:24;;;;;;;18.20;8.13;;;11.20;99.90;;;;;;5101620;27;20059;-85
2022/01/02 01:57:51;;;;;;;19.08;8.73;;;11.20;99.90;;;;;;5116899;27;20396;-85
2022/01/02 02:00:19;;;;;;;19.73;8.57;;;11.20;99.90;;;;;;5098814;27;20042;-85
2022/01/02 02:02:45;;;;;;;22.92;9.02;;;11.20;99.90;;;;;;5095233;27;20368;-85
2022/01/02 02:05:12;;;;;;;23.42;9.40;;;11.10;99.90;;;;;;5096290;28;20110;-86
2022/01/02 02:07:43;;;;;;;20.02;8.57;;;11.20;99.90;;;;;;5098262;28;20047;-85
2022/01/02 02:10:14;;;;;;;20.35;8.73;;;11.20;99.90;;;;;;5089056;28;20485;-85
2022/01/02 02:12:43;;;;;;;24.75;9.23;;;11.20;99.90;;;;;;5092258;27;20039;-85
2022/01/02 02:15:10;;;;;;;21.30;8.98;;;11.20;99.90;;;;;;5077918;27;20389;-85
2022/01/02 02:17:37;;;;;;;18.95;8.80;;;11.20;99.90;;;;;;5072054;28;20090;-85
2022/01/02 02:20:26;;;;;;;20.58;8.70;;;11.20;99.90;;;;;;5091434;28;20108;-85
2022/01/02 02:22:55;;;;;;;20.95;8.80;;;11.20;99.90;;;;;;5081646;27;20047;-85
2022/01/02 02:25:28;;;;;;;18.67;8.02;;;11.20;99.90;;;;;;5074148;28;20507;-85
2022/01/02 02:27:55;;;;;;;20.63;9.20;;;11.20;99.90;;;;;;5100176;28;20321;-85
2022/01/02 02:30:21;;;;;;;24.30;8.65;;;11.20;99.90;;;;;;5077725;27;20047;-85
2022/01/02 02:32:47;;;;;;;22.80;9.55;;;11.20;99.90;;;;;;5098265;28;20133;-85
2022/01/02 02:35:13;;;;;;;19.60;8.73;;;11.20;99.90;;;;;;5080374;28;20493;-85
2022/01/02 02:37:43;;;;;;;22.95;9.23;;;11.20;99.90;;;;;;5098614;27;20489;-86
2022/01/02 02:40:12;;;;;;;17.15;8.77;;;11.20;99.90;;;;;;5078184;28;20051;-85
2022/01/02 02:50:47;;;;;;;23.17;9.23;;;11.20;99.90;;;;;;5093310;27;20534;-85
2022/01/02 02:53:16;;;;;;;24.08;10.27;;;11.20;99.90;;;;;;5080419;27;20033;-85
2022/01/02 02:55:48;;;;;;;26.92;9.85;;;11.20;99.90;;;;;;5078070;28;20071;-85
2022/01/02 03:01:02;;;;;;;23.25;10.25;;;11.10;99.90;;;;;;5086382;28;20051;-85
2022/01/02 03:03:28;;;;;;;25.70;9.43;;;11.10;99.90;;;;;;5083741;28;20118;-85
2022/01/02 03:05:53;;;;;;;24.15;10.15;;;11.10;99.90;;;;;;5086127;28;20115;-85
2022/01/02 03:08:19;;;;;;;21.55;10.10;;;11.10;99.90;;;;;;5085887;28;20404;-85
2022/01/02 03:10:45;;;;;;;21.48;9.77;;;11.10;99.90;;;;;;5100568;28;20089;-85
2022/01/02 03:13:11;;;;;;;22.13;10.48;;;11.20;99.90;;;;;;5067355;28;20576;-85
2022/01/02 03:15:37;;;;;;;23.33;10.52;;;11.10;99.90;;;;;;5068879;27;20070;-85
2022/01/02 03:18:03;;;;;;;25.38;10.13;;;11.10;99.90;;;;;;5098065;27;20059;-85
2022/01/02 03:20:29;;;;;;;19.88;9.35;;;11.20;99.90;;;;;;5078814;28;20135;-85
2022/01/02 03:22:54;;;;;;;28.17;12.40;;;11.20;99.90;;;;;;5114391;27;20130;-86
2022/01/02 03:25:20;;;;;;;21.10;9.60;;;11.10;99.90;;;;;;5078596;28;20039;-85
2022/01/02 03:27:46;;;;;;;20.98;10.07;;;11.10;99.90;;;;;;5074858;28;20039;-85
2022/01/02 03:30:13;;;;;;;26.05;9.60;;;11.10;99.90;;;;;;5076164;27;20039;-85
2022/01/02 03:32:39;;;;;;;24.17;9.15;;;11.10;99.90;;;;;;5098773;28;20062;-85
2022/01/02 03:35:05;;;;;;;26.52;9.65;;;11.10;99.90;;;;;;5101154;28;20507;-85
2022/01/02 03:37:33;;;;;;;23.85;10.32;;;11.10;99.90;;;;;;5074889;28;20059;-85
2022/01/02 03:40:06;;;;;;;24.23;9.65;;;11.10;99.90;;;;;;5093591;28;20032;-85
2022/01/02 03:42:34;;;;;;;23.85;10.30;;;11.20;99.90;;;;;;5089993;28;20035;-85
2022/01/02 03:45:00;;;;;;;25.23;9.52;;;11.10;99.90;;;;;;5105785;28;20556;-85
2022/01/02 03:47:26;;;;;;;19.83;9.52;;;11.10;99.90;;;;;;5106688;28;20027;-85
2022/01/02 03:49:52;;;;;;;19.15;9.55;;;11.10;99.90;;;;;;5081337;28;20042;-85
2022/01/02 03:52:18;;;;;;;25.33;9.82;;;11.10;99.90;;;;;;5082154;28;20034;-85
2022/01/02 03:54:44;;;;;;;21.38;8.90;;;11.10;99.90;;;;;;5092754;28;20748;-85
2022/01/02 03:57:10;;;;;;;23.75;9.80;;;11.10;99.90;;;;;;5111972;28;20055;-85
2022/01/02 03:59:35;;;;;;;24.02;9.73;;;11.10;99.90;;;;;;5075333;28;20096;-85
2022/01/02 04:02:01;;;;;;;23.98;8.77;;;11.10;99.90;;;;;;5107270;28;20085;-85
2022/01/02 04:04:28;;;;;;;22.48;8.85;;;11.10;99.90;;;;;;5076807;28;20039;-85
2022/01/02 04:06:54;;;;;;;20.92;9.23;;;11.20;99.90;;;;;;5090541;28;21442;-85
2022/01/02 04:09:20;;;;;;;21.77;9.20;;;11.20;99.90;;;;;;5071838;28;20040;-85
2022/01/02 04:11:46;;;;;;;23.90;8.77;;;11.20;99.90;;;;;;5081890;28;20035;-85
2022/01/02 04:14:12;;;;;;;22.30;8.75;;;11.20;99.90;;;;;;5088288;27;20035;-85
2022/01/02 04:16:37;;;;;;;17.58;8.25;;;11.20;99.90;;;;;;5108869;27;20038;-85
2022/01/02 04:19:03;;;;;;;18.52;7.78;;;11.20;99.90;;;;;;5100022;28;20032;-85
2022/01/02 04:21:28;;;;;;;22.08;8.80;;;11.20;99.90;;;;;;5086657;27;20031;-85
2022/01/02 04:23:54;;;;;;;19.58;7.95;;;11.20;99.90;;;;;;5101302;27;20041;-85
2022/01/02 04:26:20;;;;;;;25.90;9.63;;;11.20;99.90;;;;;;5096593;27;20042;-86
2022/01/02 04:28:45;;;;;;;20.10;8.35;;;11.20;99.90;;;;;;5117955;27;20130;-85
2022/01/02 04:31:11;;;;;;;20.67;8.25;;;11.20;99.90;;;;;;5077809;28;20083;-86
2022/01/02 04:33:38;;;;;;;26.92;9.02;;;11.20;99.90;;;;;;5097770;27;20039;-85
2022/01/02 04:36:04;;;;;;;23.80;7.85;;;11.20;99.90;;;;;;5098416;28;20083;-85
2022/01/02 04:38:30;;;;;;;20.25;8.55;;;11.20;99.90;;;;;;5079436;27;20039;-86
2022/01/02 04:40:56;;;;;;;23.15;9.40;;;11.20;99.90;;;;;;5070395;28;20039;-86
2022/01/02 04:43:22;;;;;;;18.83;7.90;;;11.20;99.90;;;;;;5098923;27;20035;-85
2022/01/02 04:45:48;;;;;;;25.23;8.80;;;11.20;99.90;;;;;;5078460;28;20088;-85
2022/01/02 04:48:13;;;;;;;22.45;7.88;;;11.30;99.90;;;;;;5081112;27;20050;-85
2022/01/02 04:50:40;;;;;;;21.60;8.25;;;11.30;99.90;;;;;;5087321;27;20076;-85
2022/01/02 04:53:06;;;;;;;22.98;8.52;;;11.30;99.90;;;;;;5085481;27;20042;-85
2022/01/02 04:55:31;;;;;;;21.13;7.75;;;11.30;99.90;;;;;;5094895;27;20042;-85
2022/01/02 04:57:58;;;;;;;24.35;8.80;;;11.30;99.90;;;;;;5094640;28;20031;-86
2022/01/02 05:00:23;;;;;;;21.67;7.13;;;11.30;99.90;;;;;;5091574;28;20047;-85
2022/01/02 05:02:52;;;;;;;21.67;7.85;;;11.30;99.90;;;;;;5074893;27;20248;-85
2022/01/02 05:05:18;;;;;;;19.63;7.78;;;11.30;99.90;;;;;;5100748;27;20432;-85
2022/01/02 05:07:45;;;;;;;21.58;6.47;;;11.40;99.90;;;;;;5101397;27;20557;-85
2022/01/02 05:10:11;;;;;;;21.00;7.47;;;11.40;99.90;;;;;;5079259;27;20032;-85
2022/01/02 05:12:37;;;;;;;18.92;7.03;;;11.40;99.90;;;;;;5103185;27;20054;-85
2022/01/02 05:15:04;;;;;;;22.63;7.35;;;11.40;99.90;;;;;;5099523;27;20121;-85
2022/01/02 05:17:29;;;;;;;22.33;7.05;;;11.40;99.90;;;;;;5097176;27;20039;-85
2022/01/02 05:19:55;;;;;;;16.70;6.00;;;11.50;99.90;;;;;;5079741;28;20023;-85
2022/01/02 05:22:21;;;;;;;17.73;7.38;;;11.50;99.90;;;;;;5100624;27;20035;-85
2022/01/02 05:24:47;;;;;;;16.25;6.32;;;11.50;99.90;;;;;;5099271;27;20043;-85
2022/01/02 05:27:13;;;;;;;16.90;7.60;;;11.50;99.90;;;;;;5099854;27;20062;-85
2022/01/02 05:29:38;;;;;;;24.20;6.47;;;11.40;99.90;;;;;;5095281;27;20276;-85
2022/01/02 05:32:04;;;;;;;23.73;7.32;;;11.50;99.90;;;;;;5099719;27;20706;-85
2022/01/02 05:34:30;;;;;;;20.35;6.88;;;11.50;99.90;;;;;;5077711;28;21860;-85
2022/01/02 05:36:55;;;;;;;20.05;6.90;;;11.50;99.90;;;;;;5101538;27;21847;-86
2022/01/02 05:39:22;;;;;;;18.50;6.50;;;11.40;99.90;;;;;;5098528;27;20141;-86
2022/01/02 05:41:50;;;;;;;19.02;6.18;;;11.50;99.90;;;;;;5116421;27;20031;-85
2022/01/02 05:44:16;;;;;;;15.18;6.07;;;11.50;99.90;;;;;;5080430;27;20505;-86
2022/01/02 05:46:42;;;;;;;19.65;6.63;;;11.50;99.90;;;;;;5096877;27;20031;-86
2022/01/02 05:49:09;;;;;;;21.52;6.55;;;11.60;99.90;;;;;;5078473;28;20046;-86
2022/01/02 05:51:35;;;;;;;17.70;7.05;;;11.50;99.90;;;;;;5098139;27;20036;-86
2022/01/02 05:54:01;;;;;;;23.15;6.97;;;11.50;99.90;;;;;;5104277;27;20390;-86
2022/01/02 05:56:26;;;;;;;17.83;6.07;;;11.50;99.90;;;;;;5086505;27;20519;-86
2022/01/02 05:58:52;;;;;;;22.17;6.38;;;11.50;99.90;;;;;;5098894;27;20442;-85
2022/01/02 06:01:17;;;;;;;17.70;5.90;;;11.50;99.90;;;;;;5096624;27;20043;-85
2022/01/02 06:03:43;;;;;;;20.27;7.10;;;11.50;99.90;;;;;;5084676;27;20044;-86
2022/01/02 06:06:09;;;;;;;19.45;6.10;;;11.50;99.90;;;;;;5092451;28;20036;-86
2022/01/02 06:08:34;;;;;;;14.73;5.65;;;11.50;99.90;;;;;;5080473;28;20047;-86
2022/01/02 06:11:00;;;;;;;17.35;5.85;;;11.60;99.90;;;;;;5114643;27;20046;-86
2022/01/02 06:13:25;;;;;;;16.00;5.78;;;11.60;99.90;;;;;;5109934;27;20031;-85
2022/01/02 06:15:51;;;;;;;16.20;5.75;;;11.60;99.90;;;;;;5078743;28;20023;-85
2022/01/02 06:18:17;;;;;;;20.13;6.05;;;11.60;99.90;;;;;;5074814;28;20035;-86
2022/01/02 06:20:42;;;;;;;15.07;5.45;;;11.60;99.90;;;;;;5081471;27;20035;-85
2022/01/02 06:23:08;;;;;;;20.02;5.90;;;11.60;99.90;;;;;;5094223;27;20061;-85
2022/01/02 06:25:34;;;;;;;16.13;5.60;;;11.70;99.90;;;;;;5100681;27;20043;-86
2022/01/02 06:28:00;;;;;;;12.98;4.63;;;11.70;99.90;;;;;;5071440;28;20043;-85
2022/01/02 06:30:26;;;;;;;14.48;4.90;;;11.70;99.90;;;;;;5077884;27;20401;-85
2022/01/02 06:32:55;;;;;;;21.25;5.50;;;11.70;99.90;;;;;;5094702;27;20038;-85
2022/01/02 06:35:30;;;;;;;13.77;4.72;;;11.70;99.90;;;;;;5073066;28;20040;-86
2022/01/02 06:37:56;;;;;;;12.80;5.10;;;11.80;99.90;;;;;;5100248;28;20059;-86
2022/01/02 06:40:23;;;;;;;18.05;5.32;;;11.80;99.90;;;;;;5070132;28;20043;-86
2022/01/02 06:42:49;;;;;;;13.30;4.82;;;11.80;99.90;;;;;;5067062;27;20392;-86
2022/01/02 06:45:15;;;;;;;16.92;5.30;;;11.80;99.90;;;;;;5074645;27;20108;-85
2022/01/02 06:47:42;;;;;;;15.50;4.72;;;11.80;99.90;;;;;;5088425;28;20131;-86
2022/01/02 06:50:11;;;;;;;20.75;5.70;;;11.80;99.90;;;;;;5083466;28;20035;-86
2022/01/02 06:52:37;;;;;;;18.75;4.78;;;11.80;99.90;;;;;;5075970;27;20039;-86
2022/01/02 06:55:03;;;;;;;12.90;4.25;;;11.80;99.90;;;;;;5078055;27;20313;-86
2022/01/02 06:57:28;;;;;;;12.90;5.07;;;11.80;99.90;;;;;;5102555;27;20113;-86
2022/01/02 06:59:54;;;;;;;14.00;5.13;;;11.80;99.90;;;;;;5095044;27;20432;-86
2022/01/02 07:02:19;;;;;;;18.17;5.53;;;11.80;99.90;;;;;;5094113;27;20055;-86
2022/01/02 07:04:45;;;;;;;14.70;4.40;;;11.80;99.90;;;;;;5083994;27;20027;-86
2022/01/02 07:07:11;;;;;;;14.10;5.00;;;11.80;99.90;;;;;;5084745;27;20035;-87
2022/01/02 07:09:37;;;;;;;13.18;4.35;;;11.80;99.90;;;;;;5090429;28;20388;-86
2022/01/02 07:12:03;;;;;;;11.73;4.72;;;11.80;99.90;;;;;;5090923;27;20031;-86
2022/01/02 07:14:29;;;;;;;14.25;4.55;;;11.80;99.90;;;;;;5086984;27;21349;-86
2022/01/02 07:16:55;;;;;;;18.85;5.80;;;11.80;99.90;;;;;;5075230;27;20042;-86
2022/01/02 07:19:21;;;;;;;15.50;5.07;;;11.70;99.90;;;;;;5077157;27;20034;-86
2022/01/02 07:21:47;;;;;;;12.85;5.40;;;11.70;99.90;;;;;;5098544;27;20061;-86
2022/01/02 07:24:12;;;;;;;19.25;6.72;;;11.70;99.90;;;;;;5108842;27;20064;-86
2022/01/02 07:26:38;;;;;;;16.52;5.10;;;11.70;99.90;;;;;;5075391;28;20493;-86
2022/01/02 07:29:04;;;;;;;14.55;5.25;;;11.70;99.90;;;;;;5097473;27;20070;-86
2022/01/02 07:31:29;;;;;;;11.95;4.57;;;11.70;99.90;;;;;;5094847;28;20535;-86
2022/01/02 07:33:55;;;;;;;15.13;4.65;;;11.70;99.90;;;;;;5090276;28;20027;-85
2022/01/02 07:36:21;;;;;;;13.05;5.40;;;11.60;99.90;;;;;;5095019;28;20147;-86
2022/01/02 07:38:47;;;;;;;19.33;6.07;;;11.60;99.90;;;;;;5095559;27;20035;-85
2022/01/02 07:41:12;;;;;;;12.88;4.72;;;11.60;99.90;;;;;;5094232;27;20101;-85
2022/01/02 07:43:38;;;;;;;14.40;4.75;;;11.60;99.90;;;;;;5091095;28;20063;-86
2022/01/02 07:46:03;;;;;;;20.02;5.75;;;11.60;99.90;;;;;;5074430;28;20067;-86
2022/01/02 07:48:29;;;;;;;12.07;4.78;;;11.60;99.90;;;;;;5074416;28;20042;-85
2022/01/02 07:50:55;;;;;;;16.27;5.70;;;11.60;99.90;;;;;;5096556;28;20274;-85
2022/01/02 07:53:20;;;;;;;10.20;4.90;;;11.60;99.90;;;;;;5084229;28;20035;-85
2022/01/02 07:55:46;;;;;;;13.52;5.28;;;11.40;99.90;;;;;;5077714;28;20031;-86
2022/01/02 07:58:11;;;;;;;12.60;5.30;;;11.50;99.90;;;;;;5087645;28;20039;-86
2022/01/02 08:00:37;;;;;;;16.98;5.72;;;11.60;99.90;;;;;;5099267;28;20035;-86
2022/01/02 08:03:02;;;;;;;15.80;5.38;;;11.50;99.90;;;;;;5077901;28;20122;-86
2022/01/02 08:05:28;;;;;;;16.55;5.50;;;11.50;99.90;;;;;;5080309;28;20038;-86
2022/01/02 08:07:55;;;;;;;15.00;5.38;;;11.50;99.90;;;;;;5081345;28;20496;-86
2022/01/02 08:10:21;;;;;;;10.80;5.25;;;11.50;99.90;;;;;;5089269;28;20047;-86
2022/01/02 08:12:46;;;;;;;11.07;5.53;;;11.50;99.90;;;;;;5080631;28;20512;-86
2022/01/02 08:15:12;;;;;;;13.10;5.55;;;11.50;99.90;;;;;;5078951;28;20035;-86
2022/01/02 08:17:38;;;;;;;14.02;5.20;;;11.50;99.90;;;;;;5076388;28;20123;-86
2022/01/02 08:20:05;;;;;;;12.02;6.05;;;11.40;99.90;;;;;;5091789;28;20069;-87
2022/01/02 08:22:30;;;;;;;17.80;6.15;;;11.50;99.90;;;;;;5087247;28;20035;-86
2022/01/02 08:24:56;;;;;;;11.80;5.43;;;11.50;99.90;;;;;;5091739;28;20043;-86
2022/01/02 08:27:21;;;;;;;15.48;5.78;;;11.50;99.90;;;;;;5097506;28;20085;-86
2022/01/02 08:29:47;;;;;;;15.10;5.85;;;11.40;99.90;;;;;;5074009;28;20114;-85
2022/01/02 08:32:12;;;;;;;15.43;5.65;;;11.40;99.90;;;;;;5098258;28;20035;-86
2022/01/02 08:34:38;;;;;;;13.13;5.53;;;11.40;99.90;;;;;;5105893;28;20035;-86
2022/01/02 08:37:04;;;;;;;10.88;5.15;;;11.40;99.90;;;;;;5097267;28;20104;-85
2022/01/02 08:39:29;;;;;;;11.90;5.40;;;11.50;99.90;;;;;;5090052;28;20118;-85
2022/01/02 08:41:55;;;;;;;11.43;5.28;;;11.40;99.90;;;;;;5089955;28;20042;-85
2022/01/02 08:44:21;;;;;;;14.38;5.50;;;11.40;99.90;;;;;;5071954;28;20032;-85
2022/01/02 08:46:46;;;;;;;13.00;5.95;;;11.40;99.90;;;;;;5075496;28;20084;-85
2022/01/02 08:49:12;;;;;;;14.65;5.53;;;11.40;99.90;;;;;;5090266;28;20567;-85
2022/01/02 08:51:38;;;;;;;13.38;5.60;;;11.40;99.90;;;;;;5095479;28;20926;-85
2022/01/02 08:54:05;;;;;;;11.75;5.00;;;11.40;99.90;;;;;;5089913;28;20032;-86
2022/01/02 08:56:32;;;;;;;17.45;6.30;;;11.40;99.90;;;;;;5081108;28;20039;-85
2022/01/02 08:58:57;;;;;;;12.77;5.18;;;11.40;99.90;;;;;;5064346;27;20701;-84
2022/01/02 09:01:23;;;;;;;16.00;5.60;;;11.40;99.90;;;;;;5096755;28;20078;-83
2022/01/02 09:03:49;;;;;;;15.77;5.95;;;11.40;99.90;;;;;;5102984;28;20048;-84
2022/01/02 09:06:15;;;;;;;9.73;4.97;;;11.40;99.90;;;;;;5090851;28;20035;-84
2022/01/02 09:08:41;;;;;;;16.60;5.43;;;11.40;99.90;;;;;;5069013;28;20044;-83
2022/01/02 09:11:07;;;;;;;13.50;5.97;;;11.30;99.90;;;;;;5085249;28;20134;-85
2022/01/02 09:13:32;;;;;;;13.32;5.53;;;11.30;99.90;;;;;;5101810;28;20130;-84
2022/01/02 09:15:58;;;;;;;12.05;5.40;;;11.30;99.90;;;;;;5087443;28;20393;-84
2022/01/02 09:18:24;;;;;;;14.40;5.93;;;11.30;99.90;;;;;;5091508;28;20039;-85
2022/01/02 09:20:49;;;;;;;13.85;6.07;;;11.30;99.90;;;;;;5086232;28;20071;-84
2022/01/02 09:23:15;;;;;;;14.43;5.65;;;11.40;99.90;;;;;;5072441;28;20035;-85
2022/01/02 09:25:41;;;;;;;10.35;4.88;;;11.40;99.90;;;;;;5079282;27;20036;-84
2022/01/02 09:28:07;;;;;;;9.88;4.97;;;11.40;99.90;;;;;;5079406;27;20027;-84
2022/01/02 09:30:33;;;;;;;9.85;4.78;;;11.40;99.90;;;;;;5078736;27;20039;-84
2022/01/02 09:32:59;;;;;;;9.57;5.07;;;11.40;99.90;;;;;;5080954;27;20111;-85
2022/01/02 09:35:25;;;;;;;13.00;5.20;;;11.50;99.90;;;;;;5080780;27;20079;-85
2022/01/02 09:37:51;;;;;;;14.20;5.13;;;11.40;99.90;;;;;;5069380;27;20052;-84
2022/01/02 09:40:17;;;;;;;13.50;5.97;;;11.50;99.90;;;;;;5106838;28;20043;-83
2022/01/02 09:42:42;;;;;;;11.80;5.68;;;11.50;99.90;;;;;;5073833;28;20032;-84
2022/01/02 09:45:08;;;;;;;12.15;5.28;;;11.50;99.90;;;;;;5086054;28;20106;-85
2022/01/02 09:47:34;;;;;;;9.82;5.00;;;11.50;99.90;;;;;;5088559;28;20259;-84
2022/01/02 09:50:05;;;;;;;12.82;5.40;;;11.50;99.90;;;;;;5084093;28;20071;-84
2022/01/02 09:52:31;;;;;;;12.63;5.30;;;11.50;99.90;;;;;;5085800;28;20054;-84
2022/01/02 09:54:56;;;;;;;11.98;5.32;;;11.60;99.90;;;;;;5065191;28;20032;-85
2022/01/02 09:57:22;;;;;;;12.52;5.75;;;11.60;99.90;;;;;;5082143;28;20199;-85
2022/01/02 09:59:48;;;;;;;10.57;5.30;;;11.60;99.90;;;;;;5084204;28;20047;-85
2022/01/02 10:02:13;;;;;;;12.00;5.40;;;11.60;99.90;;;;;;5083500;28;20027;-85
2022/01/02 10:04:41;;;;;;;9.30;5.30;;;11.70;99.90;;;;;;5074729;28;20075;-85
2022/01/02 10:07:29;;;;;;;12.27;5.47;;;11.70;99.90;;;;;;5075576;28;20430;-85
2022/01/02 10:09:54;;;;;;;13.23;5.40;;;11.70;99.90;;;;;;5075337;28;20035;-85
2022/01/02 10:12:25;;;;;;;12.75;5.63;;;11.70;99.90;;;;;;5076721;27;20039;-85
2022/01/02 10:15:21;;;;;;;12.95;6.63;;;11.70;99.90;;;;;;5079606;28;20040;-85
2022/01/02 10:18:05;;;;;;;11.48;6.38;;;11.70;99.90;;;;;;5078964;27;20079;-86
2022/01/02 10:20:30;;;;;;;14.35;6.20;;;11.70;99.90;;;;;;5095525;27;20054;-85
2022/01/02 10:23:12;;;;;;;14.70;6.70;;;11.70;99.90;;;;;;5113763;27;20042;-85
2022/01/02 10:25:38;;;;;;;12.77;5.95;;;11.70;99.90;;;;;;5113471;27;20488;-85
2022/01/02 10:28:41;;;;;;;12.73;6.40;;;11.70;99.90;;;;;;5112819;27;20047;-85
2022/01/02 10:31:12;;;;;;;12.73;6.05;;;11.70;99.90;;;;;;5043620;28;20490;-85
2022/01/02 10:33:47;;;;;;;10.88;6.00;;;11.70;99.90;;;;;;5101611;27;20031;-85
2022/01/02 10:36:14;;;;;;;12.35;6.63;;;11.70;99.90;;;;;;5108628;27;20087;-85
2022/01/02 10:39:08;;;;;;;13.88;6.13;;;11.70;99.90;;;;;;5098011;27;20476;-86
2022/01/02 10:41:40;;;;;;;11.82;6.45;;;11.70;99.90;;;;;;5093158;28;20042;-86
2022/01/02 10:44:33;;;;;;;13.52;6.55;;;11.70;99.90;;;;;;5071914;28;20818;-85
2022/01/02 10:47:14;;;;;;;12.35;6.93;;;11.70;99.90;;;;;;5072712;28;20044;-85
2022/01/02 10:50:05;;;;;;;10.90;6.20;;;11.70;99.90;;;;;;5093849;28;20035;-85
2022/01/02 10:52:34;;;;;;;12.07;6.38;;;11.70;99.90;;;;;;5093300;27;20161;-85
2022/01/02 10:55:13;;;;;;;11.23;6.22;;;11.80;99.90;;;;;;5073709;28;20042;-85
2022/01/02 10:57:39;;;;;;;11.18;6.35;;;11.80;99.90;;;;;;5097129;27;20031;-84
2022/01/02 11:00:06;;;;;;;12.60;6.07;;;11.90;99.90;;;;;;5079461;28;20032;-84
2022/01/02 11:02:32;;;;;;;12.55;6.15;;;11.90;99.90;;;;;;5098380;27;20035;-84
2022/01/02 11:05:10;;;;;;;14.13;6.40;;;11.80;99.90;;;;;;5097091;27;20035;-85
2022/01/02 11:07:58;;;;;;;10.48;5.60;;;11.90;99.90;;;;;;5069414;28;20040;-84
2022/01/02 11:10:25;;;;;;;15.60;5.63;;;11.90;99.90;;;;;;5079423;27;20051;-84
2022/01/02 11:12:52;;;;;;;13.65;5.72;;;11.90;99.90;;;;;;5071637;27;20409;-84
2022/01/02 11:15:21;;;;;;;11.38;5.43;;;11.80;99.90;;;;;;5075272;28;20039;-84
2022/01/02 11:17:47;;;;;;;10.73;5.05;;;11.90;99.90;;;;;;5107413;27;20054;-84
2022/01/02 11:20:18;;;;;;;10.13;5.20;;;11.90;99.90;;;;;;5090185;28;20039;-84
2022/01/02 11:23:05;;;;;;;12.52;5.68;;;11.90;99.90;;;;;;5071107;28;20043;-84
2022/01/02 11:26:12;;;;;;;10.25;5.65;;;11.80;99.90;;;;;;5077536;28;20127;-83
2022/01/02 11:28:48;;;;;;;9.32;5.55;;;11.80;99.90;;;;;;5064951;28;20516;-84
2022/01/02 11:31:32;;;;;;;14.90;5.93;;;11.80;99.90;;;;;;5083454;28;20039;-83
2022/01/02 11:33:59;;;;;;;13.52;6.03;;;11.80;99.90;;;;;;5071304;28;20051;-84
2022/01/02 11:36:24;;;;;;;10.07;6.00;;;11.80;99.90;;;;;;5077759;28;20063;-84
2022/01/02 11:38:58;;;;;;;12.80;6.03;;;11.70;99.90;;;;;;5066880;28;20036;-85
2022/01/02 11:41:38;;;;;;;11.73;6.13;;;11.70;99.90;;;;;;5071352;28;20035;-84
2022/01/02 11:44:17;;;;;;;10.88;5.57;;;11.70;99.90;;;;;;5073944;28;20481;-83
2022/01/02 11:46:56;;;;;;;13.40;5.93;;;11.70;99.90;;;;;;5084378;28;20411;-83
2022/01/02 11:49:40;;;;;;;10.43;5.70;;;11.80;99.90;;;;;;5078416;28;20562;-83
2022/01/02 11:52:12;;;;;;;13.10;6.18;;;11.80;99.90;;;;;;5088991;28;20508;-83
2022/01/02 11:54:49;;;;;;;10.75;5.50;;;11.70;99.90;;;;;;5084380;28;20043;-82
2022/01/02 11:57:15;;;;;;;10.80;5.30;;;11.70;99.90;;;;;;5082883;28;20028;-81
2022/01/02 11:59:40;;;;;;;8.70;6.07;;;11.70;99.90;;;;;;5068675;28;20046;-82
2022/01/02 12:02:09;;;;;;;10.93;5.38;;;11.70;99.90;;;;;;5079874;28;20486;-83
2022/01/02 12:04:57;;;;;;;15.20;5.32;;;11.70;99.90;;;;;;5105178;28;20046;-84
2022/01/02 12:07:35;;;;;;;14.48;5.00;;;11.70;99.90;;;;;;5070634;28;20040;-84
2022/01/02 12:10:16;;;;;;;16.05;5.90;;;11.70;99.90;;;;;;5070882;28;20512;-85
2022/01/02 12:13:02;;;;;;;11.50;4.65;;;11.70;99.90;;;;;;5087301;28;20047;-84
2022/01/02 12:15:34;;;;;;;13.75;4.72;;;11.70;99.90;;;;;;5088071;28;20046;-84
2022/01/02 12:18:28;;;;;;;10.77;4.22;;;11.80;99.90;;;;;;5087391;28;20512;-85
2022/01/02 12:20:56;;;;;;;7.75;4.07;;;11.70;99.90;;;;;;5087637;28;20065;-83
2022/01/02 12:23:37;;;;;;;11.88;3.63;;;11.80;99.90;;;;;;5066579;28;20058;-83
2022/01/02 12:26:05;;;;;;;11.60;3.58;;;11.80;99.90;;;;;;5072236;28;20055;-84
2022/01/02 12:28:41;;;;;;;11.55;3.08;;;11.70;99.90;;;;;;5096106;28;20040;-84
2022/01/02 12:31:09;;;;;;;14.55;3.30;;;11.80;99.90;;;;;;5082015;28;21009;-84
2022/01/02 12:33:35;;;;;;;14.45;3.13;;;11.80;99.90;;;;;;5080762;27;20543;-84
2022/01/02 12:36:20;;;;;;;8.48;2.80;;;11.70;99.90;;;;;;5074011;28;20047;-84
2022/01/02 12:38:50;;;;;;;13.25;3.25;;;11.80;99.90;;;;;;5076184;28;20378;-84
2022/01/02 12:41:17;;;;;;;13.13;3.65;;;11.80;99.90;;;;;;5075355;28;20113;-84
2022/01/02 12:44:01;;;;;;;11.77;2.97;;;11.80;99.90;;;;;;5113397;27;20139;-83
2022/01/02 12:46:32;;;;;;;12.73;3.15;;;11.80;99.90;;;;;;5090559;27;20044;-83
2022/01/02 12:48:58;;;;;;;17.02;3.10;;;11.80;99.90;;;;;;5076449;27;20035;-83
2022/01/02 12:51:29;;;;;;;13.65;3.13;;;11.80;99.90;;;;;;5109657;27;20447;-84
2022/01/02 12:54:02;;;;;;;13.73;3.47;;;11.90;99.90;;;;;;5098188;27;20031;-84